KHYA/HYA METAR and TAF weather

Enter ICAO airport designator
Station Type Date Time Source
KHYA METAR 2020/12/06 00:56 UTC NOAA

KHYA 060056Z 29016G30KT 5SM -RA BR OVC012 02/01 A2928 RMK AO2 PK WND 30033/0006 RAB19SNE19 SLP915 P0004 T00220011


Station Type Date Time Source
KHYA Decoded METAR 2020/12/06 00:56 UTC NOAA

HYANNIS BARNSTABLE BOARDMN, MA, United States (KHYA) 41-40N 070-16W 22M
Dec 05, 2020 - 07:56 PM EST / 2020.12.06 0056 UTC
Wind: from the WNW (290 degrees) at 18 MPH (16 KT) gusting to 35 MPH (30 KT):0
Visibility: 5 mile(s):0
Sky conditions: overcast
Weather: light rain; mist
Precipitation last hour: 0.04 inches
Temperature: 36.0 F (2.2 C)
Dew Point: 34.0 F (1.1 C)
Relative Humidity: 92%
Pressure (altimeter): 29.28 in. Hg (991 hPa)
ob: KHYA 060056Z 29016G30KT 5SM -RA BR OVC012 02/01 A2928 RMK AO2 PK WND 30033/0006 RAB19SNE19 SLP915 P0004 T00220011
cycle: 1

Station Type Date Time Source
KHYA TAF 2020/12/05 21:12 UTC NOAA

TAF
AMD KHYA 052110Z 0521/0618 31003KT P6SM FEW020 OVC045
FM060000 31027G49KT 3SM -SHRA BR OVC005
FM060500 29021G44KT P6SM OVC015
FM061000 29016G36KT P6SM SCT045

Example: see airport list